createdAt,value
2016-07-17T00:00:02.898Z,20.54
2016-07-17T00:01:02.866Z,20.54
2016-07-17T00:02:03.580Z,20.54
2016-07-17T00:03:03.581Z,20.52
2016-07-17T00:04:03.581Z,20.57
2016-07-17T00:05:02.832Z,20.44
2016-07-17T00:06:03.538Z,20.4
2016-07-17T00:07:02.806Z,20.35
2016-07-17T00:08:02.790Z,20.38
2016-07-17T00:09:03.495Z,20.41
2016-07-17T00:10:03.496Z,20.36
2016-07-17T00:11:03.474Z,20.36
2016-07-17T00:12:03.478Z,20.4
2016-07-17T00:13:03.459Z,20.43
2016-07-17T00:14:03.476Z,20.47
2016-07-17T00:15:03.431Z,20.41
2016-07-17T00:16:02.692Z,20.41
2016-07-17T00:17:03.400Z,20.47
2016-07-17T00:18:03.398Z,20.4
2016-07-17T00:19:03.380Z,20.38
2016-07-17T00:20:03.366Z,20.36
2016-07-17T00:21:03.572Z,20.31
2016-07-17T00:22:02.630Z,20.36
2016-07-17T00:23:02.625Z,20.33
2016-07-17T00:24:03.316Z,20.4
2016-07-17T00:25:03.341Z,20.41
2016-07-17T00:26:02.578Z,20.52
2016-07-17T00:27:02.570Z,20.57
2016-07-17T00:28:02.557Z,20.54
2016-07-17T00:29:03.258Z,20.6
2016-07-17T00:30:02.528Z,20.58
2016-07-17T00:31:03.230Z,20.6
2016-07-17T00:32:03.229Z,20.52
2016-07-17T00:33:03.220Z,20.47
2016-07-17T00:34:03.196Z,20.41
2016-07-17T00:35:03.200Z,20.52
2016-07-17T00:36:01.739Z,20.4
2016-07-17T00:37:02.454Z,20.43
2016-07-17T00:38:02.429Z,20.55
2016-07-17T00:39:03.147Z,20.58
2016-07-17T00:40:03.129Z,20.54
2016-07-17T00:41:03.112Z,20.6
2016-07-17T00:42:03.119Z,20.63
2016-07-17T00:43:03.109Z,20.54
2016-07-17T00:44:03.082Z,20.54
2016-07-17T00:45:03.135Z,20.6
2016-07-17T00:46:03.052Z,20.44
2016-07-17T00:47:03.109Z,20.52
2016-07-17T00:48:03.037Z,20.6
2016-07-17T00:49:03.026Z,20.58
2016-07-17T00:50:03.015Z,20.49
2016-07-17T00:51:03.050Z,20.54
2016-07-17T00:52:03.005Z,20.63
2016-07-17T00:53:02.980Z,20.6
2016-07-17T00:54:02.250Z,20.7
2016-07-17T00:55:02.947Z,20.64
2016-07-17T00:56:02.944Z,20.54
2016-07-17T00:57:02.931Z,20.67
2016-07-17T00:58:02.921Z,20.54
2016-07-17T00:59:02.951Z,20.58
2016-07-17T01:00:02.179Z,20.64
2016-07-17T01:01:02.890Z,20.51
2016-07-17T01:02:02.161Z,20.54
2016-07-17T01:03:02.147Z,20.62
2016-07-17T01:04:02.857Z,20.63
2016-07-17T01:05:02.840Z,20.63
2016-07-17T01:06:02.837Z,20.54
2016-07-17T01:07:02.858Z,20.54
2016-07-17T01:08:02.795Z,20.54
2016-07-17T01:09:02.812Z,20.43
2016-07-17T01:10:02.784Z,20.57
2016-07-17T01:11:02.774Z,20.55
2016-07-17T01:12:02.771Z,20.44
2016-07-17T01:13:02.758Z,20.54
2016-07-17T01:14:02.730Z,20.62
2016-07-17T01:15:02.729Z,20.57
2016-07-17T01:16:02.719Z,20.55
2016-07-17T01:17:02.711Z,20.54
2016-07-17T01:18:02.687Z,20.62
2016-07-17T01:19:02.694Z,20.49
2016-07-17T01:20:02.672Z,20.66
2016-07-17T01:21:02.660Z,20.69
2016-07-17T01:22:02.640Z,20.72
2016-07-17T01:23:02.640Z,20.76
2016-07-17T01:24:02.614Z,20.7
2016-07-17T01:25:02.630Z,20.67
2016-07-17T01:26:02.597Z,20.74
2016-07-17T01:27:02.581Z,20.72
2016-07-17T01:28:02.570Z,20.67
2016-07-17T01:29:02.565Z,20.73
2016-07-17T01:30:02.552Z,20.79
2016-07-17T01:31:02.541Z,20.76
2016-07-17T01:32:02.540Z,20.74
2016-07-17T01:33:01.804Z,20.76
2016-07-17T01:34:01.798Z,20.74
2016-07-17T01:35:02.498Z,20.76
2016-07-17T01:36:01.845Z,20.67
2016-07-17T01:37:02.467Z,20.72
2016-07-17T01:38:02.510Z,20.54
2016-07-17T01:39:02.450Z,20.54
2016-07-17T01:40:02.446Z,20.6
2016-07-17T01:41:01.711Z,20.63
2016-07-17T01:42:02.416Z,20.69
2016-07-17T01:44:01.736Z,20.52
2016-07-17T01:45:01.677Z,20.54
2016-07-17T01:46:02.431Z,20.49
2016-07-17T01:47:02.355Z,20.54
2016-07-17T01:48:02.399Z,20.41
2016-07-17T01:49:01.622Z,20.4
2016-07-17T01:50:02.320Z,20.48
2016-07-17T01:51:02.321Z,20.44
2016-07-17T01:52:02.301Z,20.36
2016-07-17T01:53:02.287Z,20.52
2016-07-17T01:54:02.273Z,20.55
2016-07-17T01:55:01.542Z,20.54
2016-07-17T01:56:02.247Z,20.4
2016-07-17T01:57:02.248Z,20.51
2016-07-17T01:58:02.316Z,20.49
2016-07-17T01:59:01.507Z,20.54
2016-07-17T02:00:02.211Z,20.43
2016-07-17T02:01:02.197Z,20.41
2016-07-17T02:02:01.479Z,20.44
2016-07-17T02:03:01.461Z,20.44
2016-07-17T02:04:02.166Z,20.4
2016-07-17T02:05:01.435Z,20.52
2016-07-17T02:06:02.146Z,20.51
2016-07-17T02:07:02.128Z,20.54
2016-07-17T02:08:02.125Z,20.44
2016-07-17T02:09:02.107Z,20.4
2016-07-17T02:10:02.081Z,20.38
2016-07-17T02:11:02.086Z,20.41
2016-07-17T02:12:02.079Z,20.38
2016-07-17T02:13:02.046Z,20.29
2016-07-17T02:14:02.036Z,20.31
2016-07-17T02:15:02.033Z,20.32
2016-07-17T02:16:02.036Z,20.28
2016-07-17T02:17:02.016Z,20.2
2016-07-17T02:18:01.289Z,20.38
2016-07-17T02:19:01.987Z,20.32
2016-07-17T02:20:01.259Z,20.33
2016-07-17T02:21:01.260Z,20.38
2016-07-17T02:22:01.231Z,20.36
2016-07-17T02:23:01.270Z,20.31
2016-07-17T02:24:01.206Z,20.51
2016-07-17T02:25:01.222Z,20.55
2016-07-17T02:26:00.477Z,20.57
2016-07-17T02:27:01.896Z,20.54
2016-07-17T02:28:01.872Z,20.52
2016-07-17T02:29:01.874Z,20.49
2016-07-17T02:30:01.869Z,20.44
2016-07-17T02:31:01.851Z,20.41
2016-07-17T02:32:01.825Z,20.4
2016-07-17T02:33:01.122Z,20.43
2016-07-17T02:34:01.817Z,20.41
2016-07-17T02:35:01.797Z,20.32
2016-07-17T02:36:00.356Z,20.25
2016-07-17T02:37:01.788Z,20.22
2016-07-17T02:38:01.055Z,20.2
2016-07-17T02:39:01.040Z,20.04
2016-07-17T02:40:01.741Z,20.06
2016-07-17T02:41:01.736Z,20.1
2016-07-17T02:42:01.728Z,20.14
2016-07-17T02:43:01.703Z,20.16
2016-07-17T02:44:01.701Z,20.23
2016-07-17T02:45:01.673Z,20.23
2016-07-17T02:46:01.674Z,20.25
2016-07-17T02:47:01.680Z,20.2
2016-07-17T02:48:00.937Z,20.16
2016-07-17T02:49:00.922Z,20.11
2016-07-17T02:50:01.626Z,20.11
2016-07-17T02:51:01.618Z,20.1
2016-07-17T02:52:00.888Z,20.25
2016-07-17T02:53:01.602Z,20.23
2016-07-17T02:54:01.569Z,20.26
2016-07-17T02:55:01.591Z,20.29
2016-07-17T02:56:01.561Z,20.29
2016-07-17T02:57:01.569Z,20.35
2016-07-17T02:58:01.534Z,20.33
2016-07-17T02:59:01.517Z,20.4
2016-07-17T03:00:01.521Z,20.28
2016-07-17T03:01:01.500Z,20.33
2016-07-17T03:02:00.767Z,20.18
2016-07-17T03:03:01.480Z,20.25
2016-07-17T03:04:00.748Z,20.17
2016-07-17T03:05:00.790Z,20.22
2016-07-17T03:06:00.732Z,20.2
2016-07-17T03:07:01.430Z,20.2
2016-07-17T03:08:01.412Z,20.2
2016-07-17T03:09:00.692Z,20.17
2016-07-17T03:10:01.398Z,20.18
2016-07-17T03:11:01.376Z,20.22
2016-07-17T03:12:00.646Z,20.2
2016-07-17T03:13:00.637Z,20.18
2016-07-17T03:13:59.910Z,20.17
2016-07-17T03:15:01.336Z,20.17
2016-07-17T03:16:01.316Z,20.18
2016-07-17T03:17:01.308Z,20.25
2016-07-17T03:18:00.577Z,20.23
2016-07-17T03:19:01.278Z,20.22
2016-07-17T03:20:01.278Z,20.16
2016-07-17T03:21:01.266Z,20.17
2016-07-17T03:22:00.530Z,20.16
2016-07-17T03:23:00.520Z,20.17
2016-07-17T03:24:00.510Z,20.2
2016-07-17T03:25:00.498Z,20.23
2016-07-17T03:26:00.498Z,20.28
2016-07-17T03:27:01.181Z,20.2
2016-07-17T03:28:00.477Z,20.26
2016-07-17T03:29:01.171Z,20.22
2016-07-17T03:30:00.468Z,20.2
2016-07-17T03:31:00.417Z,20.2
2016-07-17T03:32:01.125Z,20.26
2016-07-17T03:32:59.691Z,20.35
2016-07-17T03:34:01.102Z,20.4
2016-07-17T03:35:00.382Z,20.33
2016-07-17T03:36:00.371Z,20.41
2016-07-17T03:37:01.054Z,20.22
2016-07-17T03:38:00.332Z,20.36
2016-07-17T03:39:00.328Z,20.4
2016-07-17T03:40:01.036Z,20.41
2016-07-17T03:41:01.011Z,20.38
2016-07-17T03:42:00.350Z,20.36
2016-07-17T03:43:00.996Z,20.41
2016-07-17T03:44:00.275Z,20.44
2016-07-17T03:45:00.992Z,20.52
2016-07-17T03:46:00.954Z,20.41
2016-07-17T03:47:00.954Z,20.36
2016-07-17T03:48:00.207Z,20.44
2016-07-17T03:49:00.207Z,20.35
2016-07-17T03:50:00.196Z,20.4
2016-07-17T03:51:00.905Z,20.36
2016-07-17T03:52:00.194Z,20.4
2016-07-17T03:53:00.164Z,20.43
2016-07-17T03:54:00.879Z,20.48
2016-07-17T03:55:00.874Z,20.33
2016-07-17T03:56:00.834Z,20.33
2016-07-17T03:57:00.835Z,20.4
2016-07-17T03:58:00.099Z,20.38
2016-07-17T03:59:00.820Z,20.38
2016-07-17T04:00:00.807Z,20.35
2016-07-17T04:01:00.777Z,20.33
2016-07-17T04:02:00.867Z,20.31
2016-07-17T04:03:00.759Z,20.31
2016-07-17T04:04:00.817Z,20.2
2016-07-17T04:05:00.747Z,20.23
2016-07-17T04:06:00.028Z,20.26
2016-07-17T04:06:59.992Z,20.29
2016-07-17T04:08:00.759Z,20.33
2016-07-17T04:08:59.977Z,20.31
2016-07-17T04:10:00.690Z,20.32
2016-07-17T04:11:00.679Z,20.32
2016-07-17T04:12:00.671Z,20.31
2016-07-17T04:12:59.931Z,20.44
2016-07-17T04:14:00.637Z,20.33
2016-07-17T04:15:00.618Z,20.44
2016-07-17T04:16:00.617Z,20.52
2016-07-17T04:17:00.599Z,20.44
2016-07-17T04:18:00.587Z,20.43
2016-07-17T04:19:00.570Z,20.43
2016-07-17T04:20:00.570Z,20.52
2016-07-17T04:21:00.556Z,20.51
2016-07-17T04:21:59.820Z,20.57
2016-07-17T04:22:59.811Z,20.54
2016-07-17T04:24:00.580Z,20.49
2016-07-17T04:25:00.496Z,20.55
2016-07-17T04:26:00.501Z,20.57
2016-07-17T04:27:00.486Z,20.54
2016-07-17T04:27:59.751Z,20.6
2016-07-17T04:29:00.455Z,20.54
2016-07-17T04:29:59.740Z,20.6
2016-07-17T04:30:59.723Z,20.4
2016-07-17T04:32:00.430Z,20.51
2016-07-17T04:33:00.401Z,20.44
2016-07-17T04:34:00.408Z,20.38
2016-07-17T04:35:00.387Z,20.31
2016-07-17T04:35:59.663Z,20.41
2016-07-17T04:37:00.363Z,20.33
2016-07-17T04:37:59.640Z,20.35
2016-07-17T04:39:00.340Z,20.33
2016-07-17T04:40:00.331Z,20.33
2016-07-17T04:41:00.323Z,20.35
2016-07-17T04:41:59.591Z,20.43
2016-07-17T04:43:00.305Z,20.36
2016-07-17T04:43:59.567Z,20.44
2016-07-17T04:45:00.367Z,20.41
2016-07-17T04:45:59.556Z,20.41
2016-07-17T04:47:00.248Z,20.33
2016-07-17T04:48:00.253Z,20.38
2016-07-17T04:49:00.246Z,20.41
2016-07-17T04:49:59.495Z,20.32
2016-07-17T04:50:59.551Z,20.4
2016-07-17T04:52:00.207Z,20.44
2016-07-17T04:52:59.471Z,20.38
2016-07-17T04:54:00.181Z,20.32
2016-07-17T04:55:00.180Z,20.4
2016-07-17T04:56:00.135Z,20.38
2016-07-17T04:56:59.418Z,20.35
2016-07-17T04:58:00.127Z,20.41
2016-07-17T04:59:00.112Z,20.33
2016-07-17T05:00:00.100Z,20.38
2016-07-17T05:01:00.087Z,20.41
2016-07-17T05:02:00.076Z,20.52
2016-07-17T05:03:00.118Z,20.51
2016-07-17T05:04:00.060Z,20.67
2016-07-17T05:05:00.061Z,20.73
2016-07-17T05:06:00.029Z,20.72
2016-07-17T05:07:00.068Z,20.76
2016-07-17T05:07:59.290Z,20.7
2016-07-17T05:09:00.002Z,20.79
2016-07-17T05:09:59.982Z,20.87
2016-07-17T05:11:00.041Z,20.91
2016-07-17T05:11:59.967Z,20.95
2016-07-17T05:13:00.001Z,21.02
2016-07-17T05:13:59.943Z,20.92
2016-07-17T05:14:59.919Z,20.94
2016-07-17T05:15:59.912Z,20.97
2016-07-17T05:16:59.905Z,20.91
2016-07-17T05:17:59.890Z,20.97
2016-07-17T05:18:59.881Z,21.06
2016-07-17T05:19:59.882Z,21.09
2016-07-17T05:20:59.151Z,21
2016-07-17T05:21:59.871Z,20.97
2016-07-17T05:22:58.404Z,21.09
2016-07-17T05:23:59.820Z,21.1
2016-07-17T05:24:59.137Z,21.13
2016-07-17T05:25:59.808Z,21.17
2016-07-17T05:26:59.794Z,21
2016-07-17T05:27:59.789Z,21.03
2016-07-17T05:28:59.781Z,20.97
2016-07-17T05:29:59.780Z,20.95
2016-07-17T05:30:59.751Z,21.02
2016-07-17T05:31:59.746Z,21.11
2016-07-17T05:32:59.006Z,21.04
2016-07-17T05:33:59.717Z,21.26
2016-07-17T05:34:59.710Z,21.26
2016-07-17T05:35:59.699Z,21.19
2016-07-17T05:36:59.684Z,21.28
2016-07-17T05:37:59.076Z,21.29
2016-07-17T05:38:59.683Z,21.34
2016-07-17T05:39:59.652Z,21.29
2016-07-17T05:40:59.638Z,21.33
2016-07-17T05:41:59.641Z,21.26
2016-07-17T05:42:59.630Z,21.31
2016-07-17T05:43:58.884Z,21.28
2016-07-17T05:44:58.875Z,21.25
2016-07-17T05:45:59.594Z,21.28
2016-07-17T05:46:59.576Z,21.15
2016-07-17T05:47:58.846Z,21.09
2016-07-17T05:48:58.837Z,21.15
2016-07-17T05:49:59.540Z,21.24
2016-07-17T05:50:59.535Z,21.26
2016-07-17T05:51:59.556Z,21.21
2016-07-17T05:52:58.798Z,21.15
2016-07-17T05:53:59.569Z,21.07
2016-07-17T05:54:59.498Z,21.1
2016-07-17T05:55:59.523Z,21.1
2016-07-17T05:56:58.759Z,21.17
2016-07-17T05:57:59.525Z,21.26
2016-07-17T05:58:59.440Z,21.26
2016-07-17T05:59:59.470Z,21.34
2016-07-17T06:00:59.429Z,21.43
2016-07-17T06:01:58.748Z,21.39
2016-07-17T06:02:59.401Z,21.4
2016-07-17T06:03:59.425Z,21.33
2016-07-17T06:04:58.664Z,21.28
2016-07-17T06:05:59.379Z,21.39
2016-07-17T06:06:58.643Z,21.43
2016-07-17T06:07:58.642Z,21.39
2016-07-17T06:08:59.326Z,21.43
2016-07-17T06:09:59.350Z,21.46
2016-07-17T06:10:59.312Z,21.46
2016-07-17T06:11:59.304Z,21.56
2016-07-17T06:12:59.290Z,21.58
2016-07-17T06:13:59.280Z,21.5
2016-07-17T06:14:58.567Z,21.62
2016-07-17T06:15:59.257Z,21.61
2016-07-17T06:16:59.252Z,21.58
2016-07-17T06:17:59.237Z,21.64
2016-07-17T06:18:59.244Z,21.61
2016-07-17T06:19:58.496Z,21.61
2016-07-17T06:20:59.211Z,21.55
2016-07-17T06:21:59.218Z,21.4
2016-07-17T06:22:59.191Z,21.41
2016-07-17T06:23:58.465Z,21.55
2016-07-17T06:24:58.461Z,21.71
2016-07-17T06:25:59.157Z,21.62
2016-07-17T06:26:58.431Z,21.77
2016-07-17T06:27:59.168Z,21.64
2016-07-17T06:28:59.122Z,21.76
2016-07-17T06:29:59.114Z,21.76
2016-07-17T06:30:59.111Z,21.79
2016-07-17T06:31:59.084Z,21.83
2016-07-17T06:32:59.077Z,21.83
2016-07-17T06:33:58.360Z,21.83
2016-07-17T06:34:58.339Z,21.84
2016-07-17T06:35:58.343Z,21.81
2016-07-17T06:36:59.046Z,21.84
2016-07-17T06:37:58.317Z,21.9
2016-07-17T06:38:59.031Z,22
2016-07-17T06:39:59.011Z,22.03
2016-07-17T06:40:58.992Z,22.11
2016-07-17T06:41:58.991Z,22.17
2016-07-17T06:42:58.256Z,22.25
2016-07-17T06:43:58.965Z,22.27
2016-07-17T06:44:57.528Z,22.22
2016-07-17T06:45:58.236Z,22.29
2016-07-17T06:46:58.956Z,22.24
2016-07-17T06:47:58.208Z,22.2
2016-07-17T06:48:58.193Z,22.14
2016-07-17T06:49:58.199Z,22.08
2016-07-17T06:50:58.889Z,21.95
2016-07-17T06:51:58.886Z,21.95
2016-07-17T06:52:58.171Z,21.9
2016-07-17T06:53:58.871Z,21.79
2016-07-17T06:54:58.859Z,21.84
2016-07-17T06:55:58.140Z,21.74
2016-07-17T06:56:58.947Z,21.8
2016-07-17T06:57:57.411Z,21.76
2016-07-17T06:58:58.821Z,21.68
2016-07-17T06:59:58.806Z,21.76
2016-07-17T07:00:58.779Z,21.8
2016-07-17T07:01:57.356Z,21.74
2016-07-17T07:02:58.106Z,21.66
2016-07-17T07:03:58.762Z,21.56
2016-07-17T07:04:58.752Z,21.66
2016-07-17T07:05:58.036Z,21.8
2016-07-17T07:06:58.762Z,21.79
2016-07-17T07:07:58.727Z,21.81
2016-07-17T07:08:58.732Z,21.92
2016-07-17T07:09:58.010Z,21.96
2016-07-17T07:10:58.915Z,21.97
2016-07-17T07:11:58.692Z,21.83
2016-07-17T07:12:58.676Z,21.95
2016-07-17T07:13:57.249Z,21.93
2016-07-17T07:14:58.654Z,22.1
2016-07-17T07:15:57.915Z,22.12
2016-07-17T07:16:57.921Z,22.11
2016-07-17T07:17:58.628Z,22.08
2016-07-17T07:18:58.633Z,22.14
2016-07-17T07:19:57.903Z,22.25
2016-07-17T07:20:58.591Z,22.22
2016-07-17T07:21:57.859Z,22.33
2016-07-17T07:22:58.581Z,22.2
2016-07-17T07:23:58.566Z,22.22
2016-07-17T07:24:58.542Z,22.2
2016-07-17T07:25:57.816Z,22.08
2016-07-17T07:26:57.113Z,22.1
2016-07-17T07:27:58.516Z,21.83
2016-07-17T07:28:58.511Z,21.79
2016-07-17T07:29:58.495Z,21.68
2016-07-17T07:30:57.841Z,21.96
2016-07-17T07:31:58.471Z,21.93
2016-07-17T07:32:58.472Z,21.96
2016-07-17T07:33:57.747Z,22.03
2016-07-17T07:34:58.452Z,22.17
2016-07-17T07:35:57.805Z,22.21
2016-07-17T07:36:58.428Z,22.35
2016-07-17T07:37:57.700Z,22.55
2016-07-17T07:38:57.701Z,22.62
2016-07-17T07:39:57.697Z,22.77
2016-07-17T07:40:58.380Z,22.8
2016-07-17T07:41:57.660Z,22.87
2016-07-17T07:42:58.382Z,22.82
2016-07-17T07:43:58.389Z,22.84
2016-07-17T07:44:58.363Z,22.8
2016-07-17T07:45:58.349Z,22.82
2016-07-17T07:46:57.610Z,22.77
2016-07-17T07:47:58.324Z,22.8
2016-07-17T07:48:57.681Z,22.79
2016-07-17T07:49:57.606Z,22.57
2016-07-17T07:50:58.290Z,22.39
2016-07-17T07:51:58.362Z,22.27
2016-07-17T07:52:57.554Z,22.11
2016-07-17T07:53:58.269Z,22.14
2016-07-17T07:54:57.539Z,22.11
2016-07-17T07:55:57.521Z,22.08
2016-07-17T07:56:58.248Z,21.99
2016-07-17T07:57:57.519Z,22.05
2016-07-17T07:58:57.503Z,22.02
2016-07-17T07:59:57.494Z,21.9
2016-07-17T08:00:58.189Z,22.11
2016-07-17T08:01:58.202Z,22.08
2016-07-17T08:02:58.178Z,22.21
2016-07-17T08:03:57.494Z,22.37
2016-07-17T08:04:58.157Z,22.4
2016-07-17T08:05:57.439Z,22.2
2016-07-17T08:06:57.440Z,22.33
2016-07-17T08:07:57.405Z,22.08
2016-07-17T08:08:56.769Z,22.1
2016-07-17T08:09:57.398Z,22
2016-07-17T08:10:57.389Z,22.1
2016-07-17T08:11:57.360Z,22.11
2016-07-17T08:12:58.072Z,22.05
2016-07-17T08:13:57.346Z,22.24
2016-07-17T08:14:58.062Z,22.1
2016-07-17T08:15:57.335Z,22.18
2016-07-17T08:16:57.352Z,22.11
2016-07-17T08:17:58.052Z,22.1
2016-07-17T08:18:57.352Z,22.06
2016-07-17T08:19:58.001Z,22.11
2016-07-17T08:20:57.328Z,22.24
2016-07-17T08:21:57.976Z,22.06
2016-07-17T08:22:58.028Z,21.97
2016-07-17T08:23:57.276Z,21.9
2016-07-17T08:24:56.527Z,21.83
2016-07-17T08:25:57.951Z,21.92
2016-07-17T08:26:57.971Z,21.99
2016-07-17T08:27:57.206Z,22.08
2016-07-17T08:28:57.246Z,22.11
2016-07-17T08:29:57.185Z,22.08
2016-07-17T08:30:57.907Z,22.18
2016-07-17T08:31:57.881Z,22.37
2016-07-17T08:32:57.159Z,22.48
2016-07-17T08:33:57.152Z,22.61
2016-07-17T08:34:57.176Z,22.58
2016-07-17T08:35:57.833Z,22.4
2016-07-17T08:36:57.186Z,22.42
2016-07-17T08:37:57.833Z,22.51
2016-07-17T08:38:57.829Z,22.42
2016-07-17T08:39:57.088Z,22.32
2016-07-17T08:40:57.812Z,22.58
2016-07-17T08:41:57.800Z,23.04
2016-07-17T08:42:57.071Z,23.35
2016-07-17T08:43:57.768Z,23.5
2016-07-17T08:44:57.035Z,23.7
2016-07-17T08:45:57.771Z,24.19
2016-07-17T08:46:57.015Z,24.46
2016-07-17T08:47:57.726Z,24.24
2016-07-17T08:48:56.300Z,24.34
2016-07-17T08:49:57.729Z,24.65
2016-07-17T08:50:57.709Z,24.78
2016-07-17T08:51:56.256Z,24.78
2016-07-17T08:52:57.705Z,25.29
2016-07-17T08:53:57.685Z,25.42
2016-07-17T08:54:57.679Z,25.33
2016-07-17T08:55:57.666Z,25.26
2016-07-17T08:56:56.947Z,24.89
2016-07-17T08:57:56.941Z,24.47
2016-07-17T08:58:57.654Z,24.09
2016-07-17T08:59:56.210Z,23.69
2016-07-17T09:00:57.632Z,23.77
2016-07-17T09:01:56.908Z,23.81
2016-07-17T09:02:57.631Z,23.84
2016-07-17T09:03:56.902Z,23.81
2016-07-17T09:04:56.189Z,23.89
2016-07-17T09:05:56.881Z,23.7
2016-07-17T09:06:56.866Z,23.73
2016-07-17T09:07:57.585Z,23.77
2016-07-17T09:08:56.137Z,23.78
2016-07-17T09:09:57.575Z,23.73
2016-07-17T09:10:56.850Z,23.73
2016-07-17T09:11:57.541Z,23.66
2016-07-17T09:12:56.816Z,23.75
2016-07-17T09:13:57.529Z,23.87
2016-07-17T09:14:57.516Z,23.69
2016-07-17T09:15:56.799Z,23.89
2016-07-17T09:16:56.779Z,23.82
2016-07-17T09:17:56.788Z,23.7
2016-07-17T09:18:56.779Z,23.69
2016-07-17T09:19:57.509Z,23.81
2016-07-17T09:20:57.462Z,23.96
2016-07-17T09:21:56.751Z,24.12
2016-07-17T09:22:56.739Z,24.06
2016-07-17T09:23:56.727Z,24.09
2016-07-17T09:24:57.439Z,24.24
2016-07-17T09:25:57.445Z,24.33
2016-07-17T09:26:56.708Z,24.17
2016-07-17T09:27:57.451Z,23.99
2016-07-17T09:28:57.404Z,24.34
2016-07-17T09:29:57.398Z,24.49
2016-07-17T09:30:56.680Z,24.24
2016-07-17T09:31:56.678Z,24.4
2016-07-17T09:32:57.384Z,24.42
2016-07-17T09:33:57.379Z,24.64
2016-07-17T09:34:55.940Z,24.9
2016-07-17T09:35:56.668Z,25.25
2016-07-17T09:36:55.918Z,25.67
2016-07-17T09:37:56.641Z,25.99
2016-07-17T09:38:57.326Z,26.34
2016-07-17T09:39:57.337Z,26.42
2016-07-17T09:40:56.609Z,26.76
2016-07-17T09:41:56.598Z,26.79
2016-07-17T09:42:56.590Z,25.99
2016-07-17T09:43:57.315Z,25.47
2016-07-17T09:44:57.306Z,25.36
2016-07-17T09:45:56.589Z,25.14
2016-07-17T09:46:57.305Z,25.14
2016-07-17T09:47:55.848Z,25.02
2016-07-17T09:48:57.275Z,25.39
2016-07-17T09:49:57.276Z,25.37
2016-07-17T09:50:57.260Z,25.79
2016-07-17T09:51:57.259Z,26.3
2016-07-17T09:52:57.286Z,26.42
2016-07-17T09:53:57.254Z,26.6
2016-07-17T09:54:56.535Z,26.52
2016-07-17T09:55:56.525Z,26.44
2016-07-17T09:56:55.808Z,26.69
2016-07-17T09:57:56.509Z,26.78
2016-07-17T09:58:56.543Z,26.49
2016-07-17T09:59:56.512Z,26.08
2016-07-17T10:00:57.225Z,25.89
2016-07-17T10:01:56.496Z,25.77
2016-07-17T10:02:57.215Z,25.99
2016-07-17T10:03:56.497Z,26.03
2016-07-17T10:04:55.766Z,25.48
2016-07-17T10:05:57.200Z,25.71
2016-07-17T10:06:56.487Z,25.73
2016-07-17T10:07:56.474Z,25.79
2016-07-17T10:08:57.186Z,26.06
2016-07-17T10:09:57.194Z,26.38
2016-07-17T10:10:57.268Z,26.76
2016-07-17T10:11:56.449Z,26.81
2016-07-17T10:12:56.457Z,26.85
2016-07-17T10:13:57.156Z,26.82
2016-07-17T10:14:57.153Z,26.86
2016-07-17T10:15:56.435Z,26.84
2016-07-17T10:16:56.425Z,26.78
2016-07-17T10:17:56.497Z,26.64
2016-07-17T10:18:56.416Z,26.63
2016-07-17T10:19:56.420Z,26.48
2016-07-17T10:20:56.420Z,26.79
2016-07-17T10:21:57.113Z,26.88
2016-07-17T10:22:57.108Z,26.84
2016-07-17T10:23:56.458Z,26.39
2016-07-17T10:24:56.389Z,26.27
2016-07-17T10:25:56.374Z,26.6
2016-07-17T10:26:56.371Z,26.7
2016-07-17T10:27:55.664Z,26.49
2016-07-17T10:28:56.407Z,26.38
2016-07-17T10:29:56.371Z,26.33
2016-07-17T10:30:56.353Z,26.27
2016-07-17T10:31:57.065Z,26.04
2016-07-17T10:32:57.051Z,26.04
2016-07-17T10:33:57.063Z,25.95
2016-07-17T10:34:56.347Z,26.54
2016-07-17T10:35:56.334Z,26.52
2016-07-17T10:36:56.326Z,26.27
2016-07-17T10:37:57.063Z,26.27
2016-07-17T10:38:57.026Z,26.38
2016-07-17T10:39:57.019Z,26.37
2016-07-17T10:40:57.037Z,25.7
2016-07-17T10:41:57.003Z,25.39
2016-07-17T10:42:56.308Z,25.36
2016-07-17T10:43:57.016Z,25.56
2016-07-17T10:44:57.015Z,26.08
2016-07-17T10:45:57.006Z,26.04
2016-07-17T10:46:56.978Z,26.56
2016-07-17T10:47:56.989Z,26.6
2016-07-17T10:48:56.261Z,26.39
2016-07-17T10:49:56.250Z,26.47
2016-07-17T10:50:56.956Z,25.94
2016-07-17T10:51:56.240Z,26.03
2016-07-17T10:52:56.961Z,26.42
2016-07-17T10:53:56.219Z,26.69
2016-07-17T10:54:56.219Z,27.09
2016-07-17T10:55:56.206Z,27.04
2016-07-17T10:56:56.249Z,26.93
2016-07-17T10:57:56.912Z,26.91
2016-07-17T10:58:56.943Z,26.6
2016-07-17T10:59:56.183Z,26.49
2016-07-17T11:00:56.188Z,26.61
2016-07-17T11:01:56.900Z,26.82
2016-07-17T11:02:56.884Z,26.84
2016-07-17T11:03:56.872Z,26.85
2016-07-17T11:04:56.163Z,27.21
2016-07-17T11:05:56.868Z,27.06
2016-07-17T11:06:56.148Z,27.03
2016-07-17T11:07:56.151Z,27.04
2016-07-17T11:08:56.158Z,26.97
2016-07-17T11:09:56.140Z,27.01
2016-07-17T11:10:56.879Z,26.7
2016-07-17T11:11:56.112Z,26.67
2016-07-17T11:12:56.117Z,26.76
2016-07-17T11:13:56.819Z,26.82
2016-07-17T11:14:56.829Z,26.71
2016-07-17T11:15:56.817Z,26.64
2016-07-17T11:16:56.083Z,26.74
2016-07-17T11:17:55.361Z,26.57
2016-07-17T11:18:55.371Z,26.7
2016-07-17T11:19:56.090Z,26.48
2016-07-17T11:20:56.120Z,26.37
2016-07-17T11:21:56.778Z,26.41
2016-07-17T11:22:56.042Z,26.39
2016-07-17T11:23:56.788Z,26.24
2016-07-17T11:24:56.789Z,26.3
2016-07-17T11:25:56.749Z,26.07
2016-07-17T11:26:56.032Z,26.01
2016-07-17T11:27:56.738Z,25.91
2016-07-17T11:28:56.705Z,25.95
2016-07-17T11:29:56.731Z,25.85
2016-07-17T11:30:56.011Z,25.88
2016-07-17T11:31:56.704Z,25.73
2016-07-17T11:32:56.697Z,25.94
2016-07-17T11:33:55.982Z,25.84
2016-07-17T11:34:56.684Z,25.94
2016-07-17T11:35:56.941Z,26.41
2016-07-17T11:36:55.951Z,26.56
2016-07-17T11:37:56.691Z,26.51
2016-07-17T11:38:55.936Z,27.06
2016-07-17T11:39:55.947Z,27.37
2016-07-17T11:40:56.640Z,27.53
2016-07-17T11:41:56.627Z,27.57
2016-07-17T11:42:55.238Z,27.48
2016-07-17T11:43:56.622Z,27.28
2016-07-17T11:44:56.619Z,27.26
2016-07-17T11:45:55.184Z,27.06
2016-07-17T11:46:56.604Z,27.07
2016-07-17T11:47:55.889Z,26.98
2016-07-17T11:48:56.602Z,26.76
2016-07-17T11:49:55.158Z,26.78
2016-07-17T11:50:56.575Z,26.82
2016-07-17T11:51:56.568Z,26.78
2016-07-17T11:52:56.560Z,27
2016-07-17T11:53:56.614Z,27.33
2016-07-17T11:54:56.568Z,27.76
2016-07-17T11:55:56.568Z,27.96
2016-07-17T11:56:56.568Z,28.31
2016-07-17T11:57:55.107Z,28.83
2016-07-17T11:58:56.536Z,28.86
2016-07-17T11:59:55.811Z,28.83
2016-07-17T12:00:56.518Z,28.87
2016-07-17T12:01:56.519Z,29.03
2016-07-17T12:02:55.786Z,28.95
2016-07-17T12:03:56.501Z,28.95
2016-07-17T12:04:55.824Z,28.84
2016-07-17T12:05:56.498Z,28.68
2016-07-17T12:06:56.487Z,28.65
2016-07-17T12:07:55.779Z,28.64
2016-07-17T12:08:56.491Z,28.52
2016-07-17T12:09:56.466Z,28.24
2016-07-17T12:10:56.469Z,28.35
2016-07-17T12:11:56.461Z,28.18
2016-07-17T12:12:56.491Z,28.05
2016-07-17T12:13:55.730Z,27.96
2016-07-17T12:14:56.500Z,28.16
2016-07-17T12:15:56.442Z,28.3
2016-07-17T12:16:56.491Z,28.15
2016-07-17T12:17:55.007Z,27.94
2016-07-17T12:18:55.717Z,27.6
2016-07-17T12:19:56.415Z,27.36
2016-07-17T12:20:56.420Z,27.03
2016-07-17T12:21:55.688Z,26.91
2016-07-17T12:22:55.691Z,27.06
2016-07-17T12:23:56.398Z,27.38
2016-07-17T12:24:55.731Z,27.78
2016-07-17T12:25:56.368Z,28.06
2016-07-17T12:26:56.399Z,28.33
2016-07-17T12:27:56.385Z,28.28
2016-07-17T12:28:55.639Z,28.53
2016-07-17T12:29:56.351Z,28.45
2016-07-17T12:30:56.352Z,28.65
2016-07-17T12:31:56.353Z,28.43
2016-07-17T12:32:56.389Z,28.3
2016-07-17T12:33:56.328Z,28.37
2016-07-17T12:34:56.322Z,28.31
2016-07-17T12:35:55.598Z,28.21
2016-07-17T12:36:56.318Z,28.1
2016-07-17T12:37:56.312Z,27.94
2016-07-17T12:38:55.593Z,27.84
2016-07-17T12:39:55.598Z,27.74
2016-07-17T12:40:56.280Z,27.61
2016-07-17T12:41:55.564Z,27.61
2016-07-17T12:42:55.562Z,27.55
2016-07-17T12:43:55.548Z,27.59
2016-07-17T12:44:56.267Z,27.57
2016-07-17T12:45:56.259Z,27.57
2016-07-17T12:46:56.251Z,27.43
2016-07-17T12:47:55.528Z,27.21
2016-07-17T12:48:56.261Z,27.21
2016-07-17T12:49:54.822Z,27.18
2016-07-17T12:50:55.503Z,27.22
2016-07-17T12:51:56.295Z,27.31
2016-07-17T12:52:55.497Z,27.13
2016-07-17T12:53:56.207Z,26.84
2016-07-17T12:54:56.197Z,26.86
2016-07-17T12:55:55.479Z,26.82
2016-07-17T12:56:56.189Z,26.88